sensor_id;sensor_type;location;lat;lon;timestamp;temperature;humidity
17762;DHT22;9005;48.838;10.112;2023-07-16T00:00:27;18.60;99.90
17762;DHT22;9005;48.838;10.112;2023-07-16T00:02:54;18.50;99.90
17762;DHT22;9005;48.838;10.112;2023-07-16T00:05:21;18.90;99.90
17762;DHT22;9005;48.838;10.112;2023-07-16T00:07:48;18.60;99.90
17762;DHT22;9005;48.838;10.112;2023-07-16T00:10:15;18.80;99.90
17762;DHT22;9005;48.838;10.112;2023-07-16T00:15:09;18.90;99.90
17762;DHT22;9005;48.838;10.112;2023-07-16T00:17:37;18.60;99.90
17762;DHT22;9005;48.838;10.112;2023-07-16T00:20:05;19.00;99.90
17762;DHT22;9005;48.838;10.112;2023-07-16T00:29:53;18.70;99.90
17762;DHT22;9005;48.838;10.112;2023-07-16T00:32:20;18.00;99.90
17762;DHT22;9005;48.838;10.112;2023-07-16T00:34:48;18.20;99.90
17762;DHT22;9005;48.838;10.112;2023-07-16T00:39:42;18.40;99.90
17762;DHT22;9005;48.838;10.112;2023-07-16T00:44:36;18.10;99.90
17762;DHT22;9005;48.838;10.112;2023-07-16T00:47:03;17.90;99.90
17762;DHT22;9005;48.838;10.112;2023-07-16T00:49:30;18.30;99.90
17762;DHT22;9005;48.838;10.112;2023-07-16T00:51:59;18.00;99.90
17762;DHT22;9005;48.838;10.112;2023-07-16T00:54:27;18.00;99.90
17762;DHT22;9005;48.838;10.112;2023-07-16T00:56:54;17.70;99.90
17762;DHT22;9005;48.838;10.112;2023-07-16T00:59:21;18.10;99.90
17762;DHT22;9005;48.838;10.112;2023-07-16T01:01:47;17.80;99.90
17762;DHT22;9005;48.838;10.112;2023-07-16T01:06:46;17.60;99.90
17762;DHT22;9005;48.838;10.112;2023-07-16T01:09:17;18.00;99.90
17762;DHT22;9005;48.838;10.112;2023-07-16T01:14:13;18.10;99.90
17762;DHT22;9005;48.838;10.112;2023-07-16T01:16:41;18.00;99.90
17762;DHT22;9005;48.838;10.112;2023-07-16T01:19:08;17.70;99.90
17762;DHT22;9005;48.838;10.112;2023-07-16T01:21:38;18.00;99.90
17762;DHT22;9005;48.838;10.112;2023-07-16T01:24:26;17.60;99.90
17762;DHT22;9005;48.838;10.112;2023-07-16T01:27:17;17.80;99.90
17762;DHT22;9005;48.838;10.112;2023-07-16T01:29:51;17.70;99.90
17762;DHT22;9005;48.838;10.112;2023-07-16T01:32:21;17.80;99.90
17762;DHT22;9005;48.838;10.112;2023-07-16T01:34:48;17.70;99.90
17762;DHT22;9005;48.838;10.112;2023-07-16T01:42:10;17.10;99.90
17762;DHT22;9005;48.838;10.112;2023-07-16T01:44:37;17.40;99.90
17762;DHT22;9005;48.838;10.112;2023-07-16T01:47:09;17.30;99.90
17762;DHT22;9005;48.838;10.112;2023-07-16T01:52:04;17.10;99.90
17762;DHT22;9005;48.838;10.112;2023-07-16T02:04:21;17.40;99.90
17762;DHT22;9005;48.838;10.112;2023-07-16T02:11:42;17.00;99.90
17762;DHT22;9005;48.838;10.112;2023-07-16T02:16:36;17.10;99.90
17762;DHT22;9005;48.838;10.112;2023-07-16T02:21:31;16.90;99.90
17762;DHT22;9005;48.838;10.112;2023-07-16T02:23:58;17.20;99.90
17762;DHT22;9005;48.838;10.112;2023-07-16T02:26:25;17.00;99.90
17762;DHT22;9005;48.838;10.112;2023-07-16T02:28:52;17.00;99.90
17762;DHT22;9005;48.838;10.112;2023-07-16T02:33:45;17.20;99.90
17762;DHT22;9005;48.838;10.112;2023-07-16T02:38:40;17.40;99.90
17762;DHT22;9005;48.838;10.112;2023-07-16T02:46:01;17.60;99.90
17762;DHT22;9005;48.838;10.112;2023-07-16T02:50:55;17.90;99.90
17762;DHT22;9005;48.838;10.112;2023-07-16T02:55:50;17.80;99.90
17762;DHT22;9005;48.838;10.112;2023-07-16T03:10:33;17.40;99.90
17762;DHT22;9005;48.838;10.112;2023-07-16T03:13:01;17.10;99.90
17762;DHT22;9005;48.838;10.112;2023-07-16T03:15:28;17.70;99.90
17762;DHT22;9005;48.838;10.112;2023-07-16T03:20:21;17.70;99.90
17762;DHT22;9005;48.838;10.112;2023-07-16T03:25:15;17.00;99.90
17762;DHT22;9005;48.838;10.112;2023-07-16T03:30:11;17.30;99.90
17762;DHT22;9005;48.838;10.112;2023-07-16T03:32:37;17.60;99.90
17762;DHT22;9005;48.838;10.112;2023-07-16T03:35:05;17.30;99.90
17762;DHT22;9005;48.838;10.112;2023-07-16T03:40:13;17.30;99.90
17762;DHT22;9005;48.838;10.112;2023-07-16T03:42:40;17.60;99.90
17762;DHT22;9005;48.838;10.112;2023-07-16T03:45:08;17.10;99.90
17762;DHT22;9005;48.838;10.112;2023-07-16T03:47:36;17.20;99.90
17762;DHT22;9005;48.838;10.112;2023-07-16T03:50:03;16.80;99.90
17762;DHT22;9005;48.838;10.112;2023-07-16T03:59:51;17.20;99.90
17762;DHT22;9005;48.838;10.112;2023-07-16T04:04:46;17.20;99.90
17762;DHT22;9005;48.838;10.112;2023-07-16T04:17:02;16.80;99.90
17762;DHT22;9005;48.838;10.112;2023-07-16T04:21:57;17.20;99.90
17762;DHT22;9005;48.838;10.112;2023-07-16T04:24:24;17.20;99.90
17762;DHT22;9005;48.838;10.112;2023-07-16T04:26:52;16.90;99.90
17762;DHT22;9005;48.838;10.112;2023-07-16T04:31:46;17.00;99.90
17762;DHT22;9005;48.838;10.112;2023-07-16T04:36:41;17.00;99.90
17762;DHT22;9005;48.838;10.112;2023-07-16T04:39:09;16.80;99.90
17762;DHT22;9005;48.838;10.112;2023-07-16T04:44:04;16.70;99.90
17762;DHT22;9005;48.838;10.112;2023-07-16T04:48:59;16.80;99.90
17762;DHT22;9005;48.838;10.112;2023-07-16T04:53:52;16.80;99.90
17762;DHT22;9005;48.838;10.112;2023-07-16T04:56:21;16.60;99.90
17762;DHT22;9005;48.838;10.112;2023-07-16T04:58:47;16.40;99.90
17762;DHT22;9005;48.838;10.112;2023-07-16T05:13:31;16.10;99.90
17762;DHT22;9005;48.838;10.112;2023-07-16T05:15:57;16.00;99.90
17762;DHT22;9005;48.838;10.112;2023-07-16T05:25:46;16.00;99.90
17762;DHT22;9005;48.838;10.112;2023-07-16T05:30:42;16.30;99.90
17762;DHT22;9005;48.838;10.112;2023-07-16T05:33:09;15.70;99.90
17762;DHT22;9005;48.838;10.112;2023-07-16T05:35:36;15.80;99.90
17762;DHT22;9005;48.838;10.112;2023-07-16T05:40:30;16.10;99.90
17762;DHT22;9005;48.838;10.112;2023-07-16T05:42:56;16.10;99.90
17762;DHT22;9005;48.838;10.112;2023-07-16T05:45:23;16.00;99.90
17762;DHT22;9005;48.838;10.112;2023-07-16T05:47:51;16.00;99.90
17762;DHT22;9005;48.838;10.112;2023-07-16T05:52:45;15.60;99.90
17762;DHT22;9005;48.838;10.112;2023-07-16T05:57:40;16.30;99.90
17762;DHT22;9005;48.838;10.112;2023-07-16T06:00:08;15.80;99.90
17762;DHT22;9005;48.838;10.112;2023-07-16T06:02:35;16.00;99.90
17762;DHT22;9005;48.838;10.112;2023-07-16T06:05:04;16.10;99.90
17762;DHT22;9005;48.838;10.112;2023-07-16T06:22:17;16.10;99.90
17762;DHT22;9005;48.838;10.112;2023-07-16T06:32:06;15.90;99.90
17762;DHT22;9005;48.838;10.112;2023-07-16T06:39:30;16.10;99.90
17762;DHT22;9005;48.838;10.112;2023-07-16T06:41:57;16.30;99.90
17762;DHT22;9005;48.838;10.112;2023-07-16T06:51:45;16.30;99.90
17762;DHT22;9005;48.838;10.112;2023-07-16T06:56:40;16.30;99.90
17762;DHT22;9005;48.838;10.112;2023-07-16T07:08:55;17.30;99.90
17762;DHT22;9005;48.838;10.112;2023-07-16T07:13:51;17.30;99.90
17762;DHT22;9005;48.838;10.112;2023-07-16T07:18:46;17.70;99.90
17762;DHT22;9005;48.838;10.112;2023-07-16T07:26:06;17.40;99.90
17762;DHT22;9005;48.838;10.112;2023-07-16T07:31:02;17.60;99.90
17762;DHT22;9005;48.838;10.112;2023-07-16T07:33:29;17.30;99.90
17762;DHT22;9005;48.838;10.112;2023-07-16T07:35:57;17.60;99.90
17762;DHT22;9005;48.838;10.112;2023-07-16T07:40:51;17.20;99.90
17762;DHT22;9005;48.838;10.112;2023-07-16T07:43:18;17.00;99.90
17762;DHT22;9005;48.838;10.112;2023-07-16T07:48:13;17.60;99.90
17762;DHT22;9005;48.838;10.112;2023-07-16T07:50:39;17.40;99.90
17762;DHT22;9005;48.838;10.112;2023-07-16T07:58:01;18.00;99.90
17762;DHT22;9005;48.838;10.112;2023-07-16T08:05:23;17.90;99.90
17762;DHT22;9005;48.838;10.112;2023-07-16T08:07:50;17.90;99.90
17762;DHT22;9005;48.838;10.112;2023-07-16T08:15:11;18.20;99.90
17762;DHT22;9005;48.838;10.112;2023-07-16T08:20:08;18.40;99.90
17762;DHT22;9005;48.838;10.112;2023-07-16T08:22:37;18.40;99.90
17762;DHT22;9005;48.838;10.112;2023-07-16T08:25:04;18.20;85.50
17762;DHT22;9005;48.838;10.112;2023-07-16T08:29:59;18.10;62.20
17762;DHT22;9005;48.838;10.112;2023-07-16T08:32:25;18.40;99.90
17762;DHT22;9005;48.838;10.112;2023-07-16T08:34:52;18.30;99.90
17762;DHT22;9005;48.838;10.112;2023-07-16T08:37:19;18.40;99.90
17762;DHT22;9005;48.838;10.112;2023-07-16T08:39:50;18.60;99.90
17762;DHT22;9005;48.838;10.112;2023-07-16T08:42:16;18.40;99.90
17762;DHT22;9005;48.838;10.112;2023-07-16T08:44:43;18.60;99.90
17762;DHT22;9005;48.838;10.112;2023-07-16T08:49:39;18.80;93.10
17762;DHT22;9005;48.838;10.112;2023-07-16T08:52:07;19.20;99.90
17762;DHT22;9005;48.838;10.112;2023-07-16T08:54:36;19.20;99.90
17762;DHT22;9005;48.838;10.112;2023-07-16T08:57:05;19.20;46.00
17762;DHT22;9005;48.838;10.112;2023-07-16T08:59:32;19.40;34.20
17762;DHT22;9005;48.838;10.112;2023-07-16T09:01:59;19.30;35.20
17762;DHT22;9005;48.838;10.112;2023-07-16T09:04:25;19.20;99.90
17762;DHT22;9005;48.838;10.112;2023-07-16T09:06:53;19.10;1.00
17762;DHT22;9005;48.838;10.112;2023-07-16T09:09:21;19.10;1.00
17762;DHT22;9005;48.838;10.112;2023-07-16T09:11:48;19.40;1.00
17762;DHT22;9005;48.838;10.112;2023-07-16T09:14:18;19.00;1.00
17762;DHT22;9005;48.838;10.112;2023-07-16T09:16:48;19.20;1.00
17762;DHT22;9005;48.838;10.112;2023-07-16T09:19:15;19.20;1.00
17762;DHT22;9005;48.838;10.112;2023-07-16T09:21:46;19.10;99.90
17762;DHT22;9005;48.838;10.112;2023-07-16T09:24:13;19.50;1.00
17762;DHT22;9005;48.838;10.112;2023-07-16T09:26:47;19.20;1.00
17762;DHT22;9005;48.838;10.112;2023-07-16T09:29:14;19.40;1.00
17762;DHT22;9005;48.838;10.112;2023-07-16T09:31:53;19.60;1.00
17762;DHT22;9005;48.838;10.112;2023-07-16T09:34:20;19.60;1.00
17762;DHT22;9005;48.838;10.112;2023-07-16T09:36:47;19.90;1.00
17762;DHT22;9005;48.838;10.112;2023-07-16T09:39:16;20.00;1.00
17762;DHT22;9005;48.838;10.112;2023-07-16T09:41:44;20.20;99.90
17762;DHT22;9005;48.838;10.112;2023-07-16T09:44:11;20.60;99.90
17762;DHT22;9005;48.838;10.112;2023-07-16T09:46:38;20.30;99.90
17762;DHT22;9005;48.838;10.112;2023-07-16T09:49:07;20.30;99.90
17762;DHT22;9005;48.838;10.112;2023-07-16T09:51:35;20.30;1.00
17762;DHT22;9005;48.838;10.112;2023-07-16T09:56:36;20.50;99.90
17762;DHT22;9005;48.838;10.112;2023-07-16T09:59:08;20.60;99.90
17762;DHT22;9005;48.838;10.112;2023-07-16T10:01:37;20.90;99.90
17762;DHT22;9005;48.838;10.112;2023-07-16T10:04:14;21.10;53.60
17762;DHT22;9005;48.838;10.112;2023-07-16T10:06:52;20.90;99.90
17762;DHT22;9005;48.838;10.112;2023-07-16T10:09:34;21.00;77.80
17762;DHT22;9005;48.838;10.112;2023-07-16T10:12:17;21.20;99.90
17762;DHT22;9005;48.838;10.112;2023-07-16T10:14:46;21.50;99.90
17762;DHT22;9005;48.838;10.112;2023-07-16T10:17:14;21.30;92.50
17762;DHT22;9005;48.838;10.112;2023-07-16T10:19:51;21.40;1.00
17762;DHT22;9005;48.838;10.112;2023-07-16T10:22:18;21.50;99.90
17762;DHT22;9005;48.838;10.112;2023-07-16T10:24:51;21.60;1.00
17762;DHT22;9005;48.838;10.112;2023-07-16T10:27:27;21.90;1.00
17762;DHT22;9005;48.838;10.112;2023-07-16T10:29:54;21.70;99.90
17762;DHT22;9005;48.838;10.112;2023-07-16T10:32:21;21.80;99.90
17762;DHT22;9005;48.838;10.112;2023-07-16T10:34:49;22.10;99.90
17762;DHT22;9005;48.838;10.112;2023-07-16T10:37:16;22.10;99.90
17762;DHT22;9005;48.838;10.112;2023-07-16T10:39:47;22.30;1.00
17762;DHT22;9005;48.838;10.112;2023-07-16T10:42:13;22.50;1.00
17762;DHT22;9005;48.838;10.112;2023-07-16T10:44:41;22.70;1.00
17762;DHT22;9005;48.838;10.112;2023-07-16T10:47:09;22.70;1.00
17762;DHT22;9005;48.838;10.112;2023-07-16T10:49:35;22.70;1.00
17762;DHT22;9005;48.838;10.112;2023-07-16T10:52:04;22.90;99.90
17762;DHT22;9005;48.838;10.112;2023-07-16T10:54:31;23.20;99.90
17762;DHT22;9005;48.838;10.112;2023-07-16T10:56:57;23.80;99.90
17762;DHT22;9005;48.838;10.112;2023-07-16T10:59:24;24.50;1.00
17762;DHT22;9005;48.838;10.112;2023-07-16T11:01:51;25.20;99.90
17762;DHT22;9005;48.838;10.112;2023-07-16T11:04:18;25.20;99.90
17762;DHT22;9005;48.838;10.112;2023-07-16T11:06:44;24.60;1.00
17762;DHT22;9005;48.838;10.112;2023-07-16T11:09:12;24.40;85.60
17762;DHT22;9005;48.838;10.112;2023-07-16T11:11:40;24.50;99.90
17762;DHT22;9005;48.838;10.112;2023-07-16T11:14:07;24.90;99.90
17762;DHT22;9005;48.838;10.112;2023-07-16T11:16:34;25.60;29.10
17762;DHT22;9005;48.838;10.112;2023-07-16T11:19:03;26.30;99.90
17762;DHT22;9005;48.838;10.112;2023-07-16T11:21:31;26.90;1.00
17762;DHT22;9005;48.838;10.112;2023-07-16T11:24:07;26.80;1.00
17762;DHT22;9005;48.838;10.112;2023-07-16T11:26:35;26.60;1.00
17762;DHT22;9005;48.838;10.112;2023-07-16T11:29:12;26.10;1.00
17762;DHT22;9005;48.838;10.112;2023-07-16T11:31:39;25.80;99.90
17762;DHT22;9005;48.838;10.112;2023-07-16T11:34:07;25.50;78.70
17762;DHT22;9005;48.838;10.112;2023-07-16T11:36:34;25.50;99.90
17762;DHT22;9005;48.838;10.112;2023-07-16T11:39:02;26.10;99.90
17762;DHT22;9005;48.838;10.112;2023-07-16T11:41:30;26.10;99.90
17762;DHT22;9005;48.838;10.112;2023-07-16T11:44:01;27.60;99.90
17762;DHT22;9005;48.838;10.112;2023-07-16T11:46:31;26.90;99.90
17762;DHT22;9005;48.838;10.112;2023-07-16T11:48:58;27.20;69.40
17762;DHT22;9005;48.838;10.112;2023-07-16T11:51:25;27.40;33.90
17762;DHT22;9005;48.838;10.112;2023-07-16T11:53:52;27.80;99.90
17762;DHT22;9005;48.838;10.112;2023-07-16T11:56:19;28.50;1.00
17762;DHT22;9005;48.838;10.112;2023-07-16T11:58:45;28.40;1.00
17762;DHT22;9005;48.838;10.112;2023-07-16T12:01:13;28.20;1.00
17762;DHT22;9005;48.838;10.112;2023-07-16T12:03:41;27.70;1.00
17762;DHT22;9005;48.838;10.112;2023-07-16T12:06:08;26.90;1.00
17762;DHT22;9005;48.838;10.112;2023-07-16T12:08:35;25.90;1.00
17762;DHT22;9005;48.838;10.112;2023-07-16T12:11:02;25.50;1.00
17762;DHT22;9005;48.838;10.112;2023-07-16T12:13:28;25.90;1.00
17762;DHT22;9005;48.838;10.112;2023-07-16T12:15:55;26.50;99.90
17762;DHT22;9005;48.838;10.112;2023-07-16T12:18:23;27.20;1.00
17762;DHT22;9005;48.838;10.112;2023-07-16T12:20:50;27.70;1.00
17762;DHT22;9005;48.838;10.112;2023-07-16T12:23:17;27.70;1.00
17762;DHT22;9005;48.838;10.112;2023-07-16T12:25:43;27.60;1.00
17762;DHT22;9005;48.838;10.112;2023-07-16T12:28:10;27.70;1.00
17762;DHT22;9005;48.838;10.112;2023-07-16T12:30:37;27.80;1.00
17762;DHT22;9005;48.838;10.112;2023-07-16T12:33:04;28.00;1.00
17762;DHT22;9005;48.838;10.112;2023-07-16T12:35:32;28.50;1.00
17762;DHT22;9005;48.838;10.112;2023-07-16T12:37:59;29.60;1.00
17762;DHT22;9005;48.838;10.112;2023-07-16T12:40:27;29.70;1.00
17762;DHT22;9005;48.838;10.112;2023-07-16T12:42:54;29.50;1.00
17762;DHT22;9005;48.838;10.112;2023-07-16T12:45:21;29.30;1.00
17762;DHT22;9005;48.838;10.112;2023-07-16T12:47:48;29.30;1.00
17762;DHT22;9005;48.838;10.112;2023-07-16T12:50:16;29.50;1.00
17762;DHT22;9005;48.838;10.112;2023-07-16T12:52:44;29.80;1.00
17762;DHT22;9005;48.838;10.112;2023-07-16T12:55:10;30.40;1.00
17762;DHT22;9005;48.838;10.112;2023-07-16T12:57:39;31.40;1.00
17762;DHT22;9005;48.838;10.112;2023-07-16T13:00:07;31.10;1.00
17762;DHT22;9005;48.838;10.112;2023-07-16T13:02:35;29.90;1.00
17762;DHT22;9005;48.838;10.112;2023-07-16T13:05:02;28.70;1.00
17762;DHT22;9005;48.838;10.112;2023-07-16T13:07:29;28.10;1.00
17762;DHT22;9005;48.838;10.112;2023-07-16T13:09:57;27.70;1.00
17762;DHT22;9005;48.838;10.112;2023-07-16T13:12:24;27.30;1.00
17762;DHT22;9005;48.838;10.112;2023-07-16T13:14:51;26.80;1.00
17762;DHT22;9005;48.838;10.112;2023-07-16T13:17:18;26.40;1.00
17762;DHT22;9005;48.838;10.112;2023-07-16T13:19:45;25.90;1.00
17762;DHT22;9005;48.838;10.112;2023-07-16T13:22:12;27.30;1.00
17762;DHT22;9005;48.838;10.112;2023-07-16T13:24:39;25.40;1.00
17762;DHT22;9005;48.838;10.112;2023-07-16T13:27:09;25.50;1.00
17762;DHT22;9005;48.838;10.112;2023-07-16T13:29:36;26.00;1.00
17762;DHT22;9005;48.838;10.112;2023-07-16T13:32:03;26.20;1.00
17762;DHT22;9005;48.838;10.112;2023-07-16T13:34:30;26.30;1.00
17762;DHT22;9005;48.838;10.112;2023-07-16T13:36:57;26.70;1.00
17762;DHT22;9005;48.838;10.112;2023-07-16T13:39:24;26.70;1.00
17762;DHT22;9005;48.838;10.112;2023-07-16T13:41:50;26.80;1.00
17762;DHT22;9005;48.838;10.112;2023-07-16T13:44:18;27.10;1.00
17762;DHT22;9005;48.838;10.112;2023-07-16T13:46:45;27.10;1.00
17762;DHT22;9005;48.838;10.112;2023-07-16T13:49:12;26.80;1.00
17762;DHT22;9005;48.838;10.112;2023-07-16T13:51:39;25.10;1.00
17762;DHT22;9005;48.838;10.112;2023-07-16T13:54:06;26.90;1.00
17762;DHT22;9005;48.838;10.112;2023-07-16T13:56:32;26.90;1.00
17762;DHT22;9005;48.838;10.112;2023-07-16T13:58:59;26.90;1.00
17762;DHT22;9005;48.838;10.112;2023-07-16T14:01:27;27.40;1.00
17762;DHT22;9005;48.838;10.112;2023-07-16T14:03:54;27.90;1.00
17762;DHT22;9005;48.838;10.112;2023-07-16T14:06:21;29.00;1.00
17762;DHT22;9005;48.838;10.112;2023-07-16T14:08:48;30.20;1.00
17762;DHT22;9005;48.838;10.112;2023-07-16T14:11:15;31.60;1.00
17762;DHT22;9005;48.838;10.112;2023-07-16T14:13:43;32.90;1.00
17762;DHT22;9005;48.838;10.112;2023-07-16T14:16:10;33.70;1.00
17762;DHT22;9005;48.838;10.112;2023-07-16T14:18:38;33.40;99.90
17762;DHT22;9005;48.838;10.112;2023-07-16T14:21:05;32.40;99.90
17762;DHT22;9005;48.838;10.112;2023-07-16T14:23:32;30.60;99.90
17762;DHT22;9005;48.838;10.112;2023-07-16T14:25:58;30.20;99.90
17762;DHT22;9005;48.838;10.112;2023-07-16T14:28:25;29.40;99.90
17762;DHT22;9005;48.838;10.112;2023-07-16T14:30:52;28.60;1.00
17762;DHT22;9005;48.838;10.112;2023-07-16T14:33:19;28.20;1.00
17762;DHT22;9005;48.838;10.112;2023-07-16T14:35:47;27.70;1.00
17762;DHT22;9005;48.838;10.112;2023-07-16T14:38:14;27.30;1.00
17762;DHT22;9005;48.838;10.112;2023-07-16T14:40:40;27.50;1.00
17762;DHT22;9005;48.838;10.112;2023-07-16T14:43:08;28.00;1.00
17762;DHT22;9005;48.838;10.112;2023-07-16T14:45:35;28.20;1.00
17762;DHT22;9005;48.838;10.112;2023-07-16T14:48:01;28.60;1.00
17762;DHT22;9005;48.838;10.112;2023-07-16T14:50:29;28.60;1.00
17762;DHT22;9005;48.838;10.112;2023-07-16T14:52:58;28.00;1.00
17762;DHT22;9005;48.838;10.112;2023-07-16T14:55:25;27.70;1.00
17762;DHT22;9005;48.838;10.112;2023-07-16T14:57:51;27.60;1.00
17762;DHT22;9005;48.838;10.112;2023-07-16T15:00:19;27.40;1.00
17762;DHT22;9005;48.838;10.112;2023-07-16T15:02:46;27.80;1.00
17762;DHT22;9005;48.838;10.112;2023-07-16T15:05:13;28.70;1.00
17762;DHT22;9005;48.838;10.112;2023-07-16T15:07:40;28.70;1.00
17762;DHT22;9005;48.838;10.112;2023-07-16T15:10:10;28.40;1.00
17762;DHT22;9005;48.838;10.112;2023-07-16T15:12:37;28.30;1.00
17762;DHT22;9005;48.838;10.112;2023-07-16T15:15:04;28.70;1.00
17762;DHT22;9005;48.838;10.112;2023-07-16T15:17:31;28.50;1.00
17762;DHT22;9005;48.838;10.112;2023-07-16T15:19:58;28.40;1.00
17762;DHT22;9005;48.838;10.112;2023-07-16T15:24:51;28.20;1.00
17762;DHT22;9005;48.838;10.112;2023-07-16T15:27:19;27.90;1.00
17762;DHT22;9005;48.838;10.112;2023-07-16T15:29:46;27.90;1.00
17762;DHT22;9005;48.838;10.112;2023-07-16T15:32:14;27.90;1.00
17762;DHT22;9005;48.838;10.112;2023-07-16T15:34:40;28.30;1.00
17762;DHT22;9005;48.838;10.112;2023-07-16T15:37:07;28.70;1.00
17762;DHT22;9005;48.838;10.112;2023-07-16T15:39:34;29.20;1.00
17762;DHT22;9005;48.838;10.112;2023-07-16T15:42:01;29.80;1.00
17762;DHT22;9005;48.838;10.112;2023-07-16T15:44:30;31.40;1.00
17762;DHT22;9005;48.838;10.112;2023-07-16T15:46:57;31.10;99.90
17762;DHT22;9005;48.838;10.112;2023-07-16T15:49:25;30.80;99.90
17762;DHT22;9005;48.838;10.112;2023-07-16T15:51:51;30.60;99.90
17762;DHT22;9005;48.838;10.112;2023-07-16T15:54:18;30.60;99.90
17762;DHT22;9005;48.838;10.112;2023-07-16T15:56:45;30.90;99.90
17762;DHT22;9005;48.838;10.112;2023-07-16T15:59:12;30.80;99.90
17762;DHT22;9005;48.838;10.112;2023-07-16T16:01:40;30.70;99.90
17762;DHT22;9005;48.838;10.112;2023-07-16T16:04:07;30.50;99.90
17762;DHT22;9005;48.838;10.112;2023-07-16T16:06:34;30.20;99.90
17762;DHT22;9005;48.838;10.112;2023-07-16T16:09:00;30.20;99.90
17762;DHT22;9005;48.838;10.112;2023-07-16T16:11:27;30.10;99.90
17762;DHT22;9005;48.838;10.112;2023-07-16T16:13:54;30.10;99.90
17762;DHT22;9005;48.838;10.112;2023-07-16T16:16:22;30.30;99.90
17762;DHT22;9005;48.838;10.112;2023-07-16T16:18:50;30.40;99.90
17762;DHT22;9005;48.838;10.112;2023-07-16T16:21:18;30.30;99.90
17762;DHT22;9005;48.838;10.112;2023-07-16T16:23:45;30.20;99.90
17762;DHT22;9005;48.838;10.112;2023-07-16T16:26:11;30.40;99.90
17762;DHT22;9005;48.838;10.112;2023-07-16T16:28:38;30.40;99.90
17762;DHT22;9005;48.838;10.112;2023-07-16T16:31:05;30.30;99.90
17762;DHT22;9005;48.838;10.112;2023-07-16T16:33:33;30.20;99.90
17762;DHT22;9005;48.838;10.112;2023-07-16T16:36:01;30.30;99.90
17762;DHT22;9005;48.838;10.112;2023-07-16T16:38:28;30.20;99.90
17762;DHT22;9005;48.838;10.112;2023-07-16T16:41:01;30.20;99.90
17762;DHT22;9005;48.838;10.112;2023-07-16T16:43:29;30.10;99.90
17762;DHT22;9005;48.838;10.112;2023-07-16T16:45:56;29.80;99.90
17762;DHT22;9005;48.838;10.112;2023-07-16T16:48:22;29.40;99.90
17762;DHT22;9005;48.838;10.112;2023-07-16T16:50:54;29.40;99.90
17762;DHT22;9005;48.838;10.112;2023-07-16T16:53:22;29.30;99.90
17762;DHT22;9005;48.838;10.112;2023-07-16T16:55:48;29.20;99.90
17762;DHT22;9005;48.838;10.112;2023-07-16T16:58:15;29.40;99.90
17762;DHT22;9005;48.838;10.112;2023-07-16T17:00:43;29.40;1.00
17762;DHT22;9005;48.838;10.112;2023-07-16T17:03:10;29.60;99.90
17762;DHT22;9005;48.838;10.112;2023-07-16T17:05:37;29.40;99.90
17762;DHT22;9005;48.838;10.112;2023-07-16T17:08:04;29.10;99.90
17762;DHT22;9005;48.838;10.112;2023-07-16T17:10:32;29.00;1.00
17762;DHT22;9005;48.838;10.112;2023-07-16T17:12:59;29.10;1.00
17762;DHT22;9005;48.838;10.112;2023-07-16T17:15:26;29.30;99.90
17762;DHT22;9005;48.838;10.112;2023-07-16T17:17:53;29.00;99.90
17762;DHT22;9005;48.838;10.112;2023-07-16T17:20:20;28.80;99.90
17762;DHT22;9005;48.838;10.112;2023-07-16T17:22:47;28.80;1.00
17762;DHT22;9005;48.838;10.112;2023-07-16T17:25:13;27.70;1.00
17762;DHT22;9005;48.838;10.112;2023-07-16T17:27:43;28.80;99.90
17762;DHT22;9005;48.838;10.112;2023-07-16T17:30:10;28.70;99.90
17762;DHT22;9005;48.838;10.112;2023-07-16T17:32:37;28.30;1.00
17762;DHT22;9005;48.838;10.112;2023-07-16T17:35:04;28.00;1.00
17762;DHT22;9005;48.838;10.112;2023-07-16T17:37:31;27.40;1.00
17762;DHT22;9005;48.838;10.112;2023-07-16T17:39:58;27.40;1.00
17762;DHT22;9005;48.838;10.112;2023-07-16T17:42:25;27.30;1.00
17762;DHT22;9005;48.838;10.112;2023-07-16T17:44:53;27.40;1.00
17762;DHT22;9005;48.838;10.112;2023-07-16T17:47:20;27.40;1.00
17762;DHT22;9005;48.838;10.112;2023-07-16T17:49:46;27.50;1.00
17762;DHT22;9005;48.838;10.112;2023-07-16T17:52:14;27.40;1.00
17762;DHT22;9005;48.838;10.112;2023-07-16T17:54:40;27.40;1.00
17762;DHT22;9005;48.838;10.112;2023-07-16T17:57:08;27.50;1.00
17762;DHT22;9005;48.838;10.112;2023-07-16T17:59:35;27.40;1.00
17762;DHT22;9005;48.838;10.112;2023-07-16T18:02:03;27.40;1.00
17762;DHT22;9005;48.838;10.112;2023-07-16T18:04:30;27.20;1.00
17762;DHT22;9005;48.838;10.112;2023-07-16T18:06:57;27.10;1.00
17762;DHT22;9005;48.838;10.112;2023-07-16T18:09:23;27.00;1.00
17762;DHT22;9005;48.838;10.112;2023-07-16T18:11:50;26.70;1.00
17762;DHT22;9005;48.838;10.112;2023-07-16T18:14:17;25.90;1.00
17762;DHT22;9005;48.838;10.112;2023-07-16T18:16:44;25.60;1.00
17762;DHT22;9005;48.838;10.112;2023-07-16T18:19:12;25.40;1.00
17762;DHT22;9005;48.838;10.112;2023-07-16T18:21:39;25.10;1.00
17762;DHT22;9005;48.838;10.112;2023-07-16T18:24:06;24.70;1.00
17762;DHT22;9005;48.838;10.112;2023-07-16T18:26:35;24.50;1.00
17762;DHT22;9005;48.838;10.112;2023-07-16T18:29:02;24.40;1.00
17762;DHT22;9005;48.838;10.112;2023-07-16T18:31:28;24.30;1.00
17762;DHT22;9005;48.838;10.112;2023-07-16T18:33:56;24.20;1.00
17762;DHT22;9005;48.838;10.112;2023-07-16T18:36:24;24.10;1.00
17762;DHT22;9005;48.838;10.112;2023-07-16T18:38:51;24.00;1.00
17762;DHT22;9005;48.838;10.112;2023-07-16T18:41:18;24.00;1.00
17762;DHT22;9005;48.838;10.112;2023-07-16T18:43:45;23.90;1.00
17762;DHT22;9005;48.838;10.112;2023-07-16T18:46:12;23.80;1.00
17762;DHT22;9005;48.838;10.112;2023-07-16T18:48:39;23.80;1.00
17762;DHT22;9005;48.838;10.112;2023-07-16T18:51:06;23.70;1.00
17762;DHT22;9005;48.838;10.112;2023-07-16T18:53:34;23.70;1.00
17762;DHT22;9005;48.838;10.112;2023-07-16T18:56:01;23.60;1.00
17762;DHT22;9005;48.838;10.112;2023-07-16T19:00:56;23.70;1.00
17762;DHT22;9005;48.838;10.112;2023-07-16T19:03:23;23.70;1.00
17762;DHT22;9005;48.838;10.112;2023-07-16T19:05:50;23.70;4.80
17762;DHT22;9005;48.838;10.112;2023-07-16T19:08:17;23.80;29.40
17762;DHT22;9005;48.838;10.112;2023-07-16T19:10:45;23.80;71.00
17762;DHT22;9005;48.838;10.112;2023-07-16T19:13:12;23.70;51.20
17762;DHT22;9005;48.838;10.112;2023-07-16T19:15:39;23.60;64.40
17762;DHT22;9005;48.838;10.112;2023-07-16T19:18:06;23.60;45.30
17762;DHT22;9005;48.838;10.112;2023-07-16T19:20:32;23.60;8.50
17762;DHT22;9005;48.838;10.112;2023-07-16T19:22:59;23.50;51.10
17762;DHT22;9005;48.838;10.112;2023-07-16T19:25:26;23.50;33.80
17762;DHT22;9005;48.838;10.112;2023-07-16T19:30:21;23.30;67.20
17762;DHT22;9005;48.838;10.112;2023-07-16T19:32:48;23.10;80.90
17762;DHT22;9005;48.838;10.112;2023-07-16T19:35:14;22.90;99.90
17762;DHT22;9005;48.838;10.112;2023-07-16T19:37:41;22.80;99.90
17762;DHT22;9005;48.838;10.112;2023-07-16T19:40:08;22.60;99.90
17762;DHT22;9005;48.838;10.112;2023-07-16T19:42:37;22.50;99.90